sensor_id;sensor_type;location;lat;lon;timestamp;P1;durP1;ratioP1;P2;durP2;ratioP2
51764;SDS011;37835;53.256;6.456;2022-12-20T00:01:28;41.63;;;19.65;;
51764;SDS011;37835;53.256;6.456;2022-12-20T00:03:56;10.45;;;6.68;;
51764;SDS011;37835;53.256;6.456;2022-12-20T00:06:23;14.40;;;7.82;;
51764;SDS011;37835;53.256;6.456;2022-12-20T00:08:55;8.75;;;5.93;;
51764;SDS011;37835;53.256;6.456;2022-12-20T00:11:22;7.85;;;5.00;;
51764;SDS011;37835;53.256;6.456;2022-12-20T00:13:49;8.40;;;5.25;;
51764;SDS011;37835;53.256;6.456;2022-12-20T00:16:16;9.85;;;5.43;;
51764;SDS011;37835;53.256;6.456;2022-12-20T00:18:43;7.80;;;5.78;;
51764;SDS011;37835;53.256;6.456;2022-12-20T00:21:10;7.07;;;4.75;;
51764;SDS011;37835;53.256;6.456;2022-12-20T00:23:38;10.52;;;5.03;;
51764;SDS011;37835;53.256;6.456;2022-12-20T00:26:11;8.20;;;5.13;;
51764;SDS011;37835;53.256;6.456;2022-12-20T00:28:38;7.88;;;4.68;;
51764;SDS011;37835;53.256;6.456;2022-12-20T00:31:05;6.68;;;5.30;;
51764;SDS011;37835;53.256;6.456;2022-12-20T00:33:35;7.15;;;4.30;;
51764;SDS011;37835;53.256;6.456;2022-12-20T00:36:02;6.63;;;4.60;;
51764;SDS011;37835;53.256;6.456;2022-12-20T00:38:29;9.43;;;5.15;;
51764;SDS011;37835;53.256;6.456;2022-12-20T00:41:14;6.38;;;4.55;;
51764;SDS011;37835;53.256;6.456;2022-12-20T00:43:42;7.25;;;4.45;;
51764;SDS011;37835;53.256;6.456;2022-12-20T00:46:08;12.15;;;4.38;;
51764;SDS011;37835;53.256;6.456;2022-12-20T00:48:35;6.93;;;4.68;;
51764;SDS011;37835;53.256;6.456;2022-12-20T00:51:02;7.82;;;4.65;;
51764;SDS011;37835;53.256;6.456;2022-12-20T00:53:33;8.18;;;4.70;;
51764;SDS011;37835;53.256;6.456;2022-12-20T00:55:59;7.25;;;4.22;;
51764;SDS011;37835;53.256;6.456;2022-12-20T00:58:26;6.88;;;4.28;;
51764;SDS011;37835;53.256;6.456;2022-12-20T01:00:52;8.10;;;4.45;;
51764;SDS011;37835;53.256;6.456;2022-12-20T01:03:19;6.45;;;4.53;;
51764;SDS011;37835;53.256;6.456;2022-12-20T01:05:52;8.27;;;4.38;;
51764;SDS011;37835;53.256;6.456;2022-12-20T01:08:20;8.63;;;4.80;;
51764;SDS011;37835;53.256;6.456;2022-12-20T01:10:57;7.53;;;4.28;;
51764;SDS011;37835;53.256;6.456;2022-12-20T01:13:31;6.18;;;4.47;;
51764;SDS011;37835;53.256;6.456;2022-12-20T01:18:31;5.05;;;4.20;;
51764;SDS011;37835;53.256;6.456;2022-12-20T01:20:59;6.40;;;4.28;;
51764;SDS011;37835;53.256;6.456;2022-12-20T01:23:29;5.00;;;4.15;;
51764;SDS011;37835;53.256;6.456;2022-12-20T01:25:59;6.85;;;4.30;;
51764;SDS011;37835;53.256;6.456;2022-12-20T01:28:25;8.68;;;3.70;;
51764;SDS011;37835;53.256;6.456;2022-12-20T01:30:51;7.40;;;3.80;;
51764;SDS011;37835;53.256;6.456;2022-12-20T01:33:17;9.15;;;4.45;;
51764;SDS011;37835;53.256;6.456;2022-12-20T01:35:53;6.97;;;4.10;;
51764;SDS011;37835;53.256;6.456;2022-12-20T01:38:26;9.43;;;3.50;;
51764;SDS011;37835;53.256;6.456;2022-12-20T01:40:52;8.43;;;4.50;;
51764;SDS011;37835;53.256;6.456;2022-12-20T01:43:19;8.82;;;4.78;;
51764;SDS011;37835;53.256;6.456;2022-12-20T01:45:46;4.75;;;3.70;;
51764;SDS011;37835;53.256;6.456;2022-12-20T01:48:12;4.20;;;3.75;;
51764;SDS011;37835;53.256;6.456;2022-12-20T01:50:41;6.68;;;4.15;;
51764;SDS011;37835;53.256;6.456;2022-12-20T01:53:07;5.68;;;3.90;;
51764;SDS011;37835;53.256;6.456;2022-12-20T01:55:34;5.45;;;4.03;;
51764;SDS011;37835;53.256;6.456;2022-12-20T01:58:01;8.75;;;3.72;;
51764;SDS011;37835;53.256;6.456;2022-12-20T02:00:29;7.13;;;4.03;;
51764;SDS011;37835;53.256;6.456;2022-12-20T02:02:57;4.53;;;3.72;;
51764;SDS011;37835;53.256;6.456;2022-12-20T02:05:25;5.30;;;3.70;;
51764;SDS011;37835;53.256;6.456;2022-12-20T02:07:51;5.82;;;3.40;;
51764;SDS011;37835;53.256;6.456;2022-12-20T02:10:21;8.13;;;4.28;;
51764;SDS011;37835;53.256;6.456;2022-12-20T02:12:54;6.00;;;3.70;;
51764;SDS011;37835;53.256;6.456;2022-12-20T02:15:29;4.47;;;3.33;;
51764;SDS011;37835;53.256;6.456;2022-12-20T02:31:39;4.35;;;3.70;;
51764;SDS011;37835;53.256;6.456;2022-12-20T02:34:08;9.63;;;3.90;;
51764;SDS011;37835;53.256;6.456;2022-12-20T02:36:35;6.55;;;3.80;;
51764;SDS011;37835;53.256;6.456;2022-12-20T02:39:01;4.10;;;3.70;;
51764;SDS011;37835;53.256;6.456;2022-12-20T02:41:34;6.15;;;4.20;;
51764;SDS011;37835;53.256;6.456;2022-12-20T02:44:04;6.47;;;3.72;;
51764;SDS011;37835;53.256;6.456;2022-12-20T02:46:54;6.15;;;3.90;;
51764;SDS011;37835;53.256;6.456;2022-12-20T02:49:22;5.78;;;4.22;;
51764;SDS011;37835;53.256;6.456;2022-12-20T02:51:53;6.70;;;4.20;;
51764;SDS011;37835;53.256;6.456;2022-12-20T02:54:21;5.40;;;3.90;;
51764;SDS011;37835;53.256;6.456;2022-12-20T02:56:51;6.88;;;4.10;;
51764;SDS011;37835;53.256;6.456;2022-12-20T02:59:25;9.38;;;4.05;;
51764;SDS011;37835;53.256;6.456;2022-12-20T03:02:01;6.25;;;3.90;;
51764;SDS011;37835;53.256;6.456;2022-12-20T03:04:29;6.47;;;3.63;;
51764;SDS011;37835;53.256;6.456;2022-12-20T03:09:26;5.78;;;4.15;;
51764;SDS011;37835;53.256;6.456;2022-12-20T03:11:54;8.23;;;4.22;;
51764;SDS011;37835;53.256;6.456;2022-12-20T03:14:20;6.55;;;3.85;;
51764;SDS011;37835;53.256;6.456;2022-12-20T03:16:45;7.78;;;4.18;;
51764;SDS011;37835;53.256;6.456;2022-12-20T03:19:11;7.50;;;4.60;;
51764;SDS011;37835;53.256;6.456;2022-12-20T03:21:37;6.30;;;3.80;;
51764;SDS011;37835;53.256;6.456;2022-12-20T03:24:02;6.18;;;4.03;;
51764;SDS011;37835;53.256;6.456;2022-12-20T03:26:28;6.93;;;4.50;;
51764;SDS011;37835;53.256;6.456;2022-12-20T03:28:54;6.15;;;4.30;;
51764;SDS011;37835;53.256;6.456;2022-12-20T03:31:19;7.65;;;3.90;;
51764;SDS011;37835;53.256;6.456;2022-12-20T03:33:45;4.32;;;3.92;;
51764;SDS011;37835;53.256;6.456;2022-12-20T03:36:10;8.80;;;4.45;;
51764;SDS011;37835;53.256;6.456;2022-12-20T03:38:36;5.90;;;4.20;;
51764;SDS011;37835;53.256;6.456;2022-12-20T03:41:01;5.57;;;4.50;;
51764;SDS011;37835;53.256;6.456;2022-12-20T03:43:27;5.95;;;4.30;;
51764;SDS011;37835;53.256;6.456;2022-12-20T03:45:52;8.75;;;4.55;;
51764;SDS011;37835;53.256;6.456;2022-12-20T03:48:18;5.72;;;4.10;;
51764;SDS011;37835;53.256;6.456;2022-12-20T03:50:44;7.82;;;4.40;;
51764;SDS011;37835;53.256;6.456;2022-12-20T03:53:09;5.20;;;4.40;;
51764;SDS011;37835;53.256;6.456;2022-12-20T03:55:35;5.72;;;4.10;;
51764;SDS011;37835;53.256;6.456;2022-12-20T03:58:00;4.88;;;4.07;;
51764;SDS011;37835;53.256;6.456;2022-12-20T04:00:26;6.13;;;4.00;;
51764;SDS011;37835;53.256;6.456;2022-12-20T04:02:51;7.57;;;4.43;;
51764;SDS011;37835;53.256;6.456;2022-12-20T04:05:17;7.38;;;4.18;;
51764;SDS011;37835;53.256;6.456;2022-12-20T04:07:42;6.72;;;4.05;;
51764;SDS011;37835;53.256;6.456;2022-12-20T04:10:09;6.65;;;4.18;;
51764;SDS011;37835;53.256;6.456;2022-12-20T04:12:36;8.00;;;4.45;;
51764;SDS011;37835;53.256;6.456;2022-12-20T04:15:01;5.28;;;3.97;;
51764;SDS011;37835;53.256;6.456;2022-12-20T04:17:27;6.43;;;4.22;;
51764;SDS011;37835;53.256;6.456;2022-12-20T04:19:53;5.03;;;4.10;;
51764;SDS011;37835;53.256;6.456;2022-12-20T04:22:18;7.05;;;3.80;;
51764;SDS011;37835;53.256;6.456;2022-12-20T04:24:44;5.85;;;3.80;;
51764;SDS011;37835;53.256;6.456;2022-12-20T04:27:09;5.35;;;4.43;;
51764;SDS011;37835;53.256;6.456;2022-12-20T04:29:35;10.45;;;4.10;;
51764;SDS011;37835;53.256;6.456;2022-12-20T04:32:00;6.97;;;4.32;;
51764;SDS011;37835;53.256;6.456;2022-12-20T04:34:26;4.80;;;4.28;;
51764;SDS011;37835;53.256;6.456;2022-12-20T04:36:51;6.43;;;4.30;;
51764;SDS011;37835;53.256;6.456;2022-12-20T04:39:17;7.03;;;4.63;;
51764;SDS011;37835;53.256;6.456;2022-12-20T04:41:43;8.48;;;4.80;;
51764;SDS011;37835;53.256;6.456;2022-12-20T04:44:09;8.27;;;4.35;;
51764;SDS011;37835;53.256;6.456;2022-12-20T04:46:34;5.95;;;4.68;;
51764;SDS011;37835;53.256;6.456;2022-12-20T04:49:00;8.70;;;4.50;;
51764;SDS011;37835;53.256;6.456;2022-12-20T04:51:26;6.32;;;5.00;;
51764;SDS011;37835;53.256;6.456;2022-12-20T04:53:52;6.93;;;4.93;;
51764;SDS011;37835;53.256;6.456;2022-12-20T04:56:22;6.50;;;4.80;;
51764;SDS011;37835;53.256;6.456;2022-12-20T04:58:51;5.78;;;4.57;;
51764;SDS011;37835;53.256;6.456;2022-12-20T05:01:17;7.88;;;5.05;;
51764;SDS011;37835;53.256;6.456;2022-12-20T05:03:43;9.68;;;5.03;;
51764;SDS011;37835;53.256;6.456;2022-12-20T05:06:10;8.82;;;5.72;;
51764;SDS011;37835;53.256;6.456;2022-12-20T05:08:36;5.57;;;4.43;;
51764;SDS011;37835;53.256;6.456;2022-12-20T05:11:02;5.80;;;4.45;;
51764;SDS011;37835;53.256;6.456;2022-12-20T05:13:28;5.20;;;4.38;;
51764;SDS011;37835;53.256;6.456;2022-12-20T05:15:55;6.30;;;4.28;;
51764;SDS011;37835;53.256;6.456;2022-12-20T05:18:21;6.70;;;4.72;;
51764;SDS011;37835;53.256;6.456;2022-12-20T05:20:48;8.50;;;4.60;;
51764;SDS011;37835;53.256;6.456;2022-12-20T05:23:34;6.70;;;4.50;;
51764;SDS011;37835;53.256;6.456;2022-12-20T05:26:19;7.65;;;4.65;;
51764;SDS011;37835;53.256;6.456;2022-12-20T05:28:44;7.30;;;4.53;;
51764;SDS011;37835;53.256;6.456;2022-12-20T05:31:10;7.07;;;4.60;;
51764;SDS011;37835;53.256;6.456;2022-12-20T05:33:35;7.55;;;4.75;;
51764;SDS011;37835;53.256;6.456;2022-12-20T05:36:01;7.45;;;4.95;;
51764;SDS011;37835;53.256;6.456;2022-12-20T05:38:27;6.72;;;4.35;;
51764;SDS011;37835;53.256;6.456;2022-12-20T05:40:52;5.40;;;4.32;;
51764;SDS011;37835;53.256;6.456;2022-12-20T05:43:18;5.55;;;4.10;;
51764;SDS011;37835;53.256;6.456;2022-12-20T05:45:48;4.75;;;4.15;;
51764;SDS011;37835;53.256;6.456;2022-12-20T05:48:15;5.82;;;4.30;;
51764;SDS011;37835;53.256;6.456;2022-12-20T05:50:42;5.93;;;4.30;;
51764;SDS011;37835;53.256;6.456;2022-12-20T05:53:12;5.60;;;4.50;;
51764;SDS011;37835;53.256;6.456;2022-12-20T05:55:46;6.25;;;3.90;;
51764;SDS011;37835;53.256;6.456;2022-12-20T05:58:13;5.90;;;4.13;;
51764;SDS011;37835;53.256;6.456;2022-12-20T06:00:42;6.80;;;3.95;;
51764;SDS011;37835;53.256;6.456;2022-12-20T06:03:08;7.82;;;4.18;;
51764;SDS011;37835;53.256;6.456;2022-12-20T06:05:36;7.13;;;3.58;;
51764;SDS011;37835;53.256;6.456;2022-12-20T06:08:02;9.60;;;3.72;;
51764;SDS011;37835;53.256;6.456;2022-12-20T06:10:29;4.00;;;3.58;;
51764;SDS011;37835;53.256;6.456;2022-12-20T06:12:55;7.90;;;3.75;;
51764;SDS011;37835;53.256;6.456;2022-12-20T06:15:21;4.50;;;3.45;;
51764;SDS011;37835;53.256;6.456;2022-12-20T06:17:46;5.88;;;4.30;;
51764;SDS011;37835;53.256;6.456;2022-12-20T06:20:12;7.72;;;4.20;;
51764;SDS011;37835;53.256;6.456;2022-12-20T06:22:37;6.88;;;3.35;;
51764;SDS011;37835;53.256;6.456;2022-12-20T06:25:03;6.90;;;3.70;;
51764;SDS011;37835;53.256;6.456;2022-12-20T06:27:30;7.32;;;3.58;;
51764;SDS011;37835;53.256;6.456;2022-12-20T06:29:55;5.60;;;3.78;;
51764;SDS011;37835;53.256;6.456;2022-12-20T06:32:21;4.25;;;3.58;;
51764;SDS011;37835;53.256;6.456;2022-12-20T06:34:46;4.85;;;3.60;;
51764;SDS011;37835;53.256;6.456;2022-12-20T06:37:12;5.47;;;3.90;;
51764;SDS011;37835;53.256;6.456;2022-12-20T06:39:38;5.03;;;3.67;;
51764;SDS011;37835;53.256;6.456;2022-12-20T06:42:03;6.25;;;3.97;;
51764;SDS011;37835;53.256;6.456;2022-12-20T06:44:29;5.25;;;3.67;;
51764;SDS011;37835;53.256;6.456;2022-12-20T06:46:55;3.67;;;3.38;;
51764;SDS011;37835;53.256;6.456;2022-12-20T06:49:21;4.05;;;3.65;;
51764;SDS011;37835;53.256;6.456;2022-12-20T06:51:46;5.50;;;3.92;;
51764;SDS011;37835;53.256;6.456;2022-12-20T06:54:12;5.20;;;3.90;;
51764;SDS011;37835;53.256;6.456;2022-12-20T06:56:38;7.95;;;3.70;;
51764;SDS011;37835;53.256;6.456;2022-12-20T06:59:04;7.07;;;3.80;;
51764;SDS011;37835;53.256;6.456;2022-12-20T07:01:29;6.13;;;3.63;;
51764;SDS011;37835;53.256;6.456;2022-12-20T07:03:55;6.75;;;4.10;;
51764;SDS011;37835;53.256;6.456;2022-12-20T07:06:21;4.60;;;3.58;;
51764;SDS011;37835;53.256;6.456;2022-12-20T07:08:46;4.47;;;4.05;;
51764;SDS011;37835;53.256;6.456;2022-12-20T07:11:12;4.88;;;4.13;;
51764;SDS011;37835;53.256;6.456;2022-12-20T07:13:37;4.55;;;4.15;;
51764;SDS011;37835;53.256;6.456;2022-12-20T07:16:03;6.15;;;4.20;;
51764;SDS011;37835;53.256;6.456;2022-12-20T07:18:29;4.45;;;4.00;;
51764;SDS011;37835;53.256;6.456;2022-12-20T07:20:58;5.47;;;4.47;;
51764;SDS011;37835;53.256;6.456;2022-12-20T07:23:24;7.93;;;5.00;;
51764;SDS011;37835;53.256;6.456;2022-12-20T07:25:53;6.40;;;5.10;;
51764;SDS011;37835;53.256;6.456;2022-12-20T07:28:20;5.85;;;5.25;;
51764;SDS011;37835;53.256;6.456;2022-12-20T07:30:46;5.25;;;4.85;;
51764;SDS011;37835;53.256;6.456;2022-12-20T07:33:12;7.07;;;5.35;;
51764;SDS011;37835;53.256;6.456;2022-12-20T07:35:37;6.43;;;5.72;;
51764;SDS011;37835;53.256;6.456;2022-12-20T07:38:04;6.80;;;5.93;;
51764;SDS011;37835;53.256;6.456;2022-12-20T07:40:29;6.15;;;5.47;;
51764;SDS011;37835;53.256;6.456;2022-12-20T07:42:55;6.63;;;6.03;;
51764;SDS011;37835;53.256;6.456;2022-12-20T07:45:21;7.63;;;6.22;;
51764;SDS011;37835;53.256;6.456;2022-12-20T07:47:46;6.57;;;5.97;;
51764;SDS011;37835;53.256;6.456;2022-12-20T07:50:12;6.63;;;6.13;;
51764;SDS011;37835;53.256;6.456;2022-12-20T07:52:38;7.07;;;6.25;;
51764;SDS011;37835;53.256;6.456;2022-12-20T07:55:06;10.07;;;7.05;;
51764;SDS011;37835;53.256;6.456;2022-12-20T07:57:40;9.25;;;6.97;;
51764;SDS011;37835;53.256;6.456;2022-12-20T08:00:10;9.75;;;7.50;;
51764;SDS011;37835;53.256;6.456;2022-12-20T08:02:37;10.32;;;7.65;;
51764;SDS011;37835;53.256;6.456;2022-12-20T08:07:34;10.15;;;7.70;;
51764;SDS011;37835;53.256;6.456;2022-12-20T08:10:01;8.68;;;7.20;;
51764;SDS011;37835;53.256;6.456;2022-12-20T08:12:28;9.00;;;8.10;;
51764;SDS011;37835;53.256;6.456;2022-12-20T08:14:55;8.70;;;7.55;;
51764;SDS011;37835;53.256;6.456;2022-12-20T08:17:22;8.32;;;7.53;;
51764;SDS011;37835;53.256;6.456;2022-12-20T08:19:48;8.85;;;7.40;;
51764;SDS011;37835;53.256;6.456;2022-12-20T08:22:16;7.93;;;7.15;;
51764;SDS011;37835;53.256;6.456;2022-12-20T08:24:43;8.45;;;6.55;;
51764;SDS011;37835;53.256;6.456;2022-12-20T08:27:09;9.02;;;6.57;;
51764;SDS011;37835;53.256;6.456;2022-12-20T08:29:34;11.25;;;6.95;;
51764;SDS011;37835;53.256;6.456;2022-12-20T08:32:00;7.47;;;6.40;;
51764;SDS011;37835;53.256;6.456;2022-12-20T08:34:25;8.18;;;6.45;;
51764;SDS011;37835;53.256;6.456;2022-12-20T08:36:51;10.48;;;6.50;;
51764;SDS011;37835;53.256;6.456;2022-12-20T08:39:17;7.30;;;5.70;;
51764;SDS011;37835;53.256;6.456;2022-12-20T08:41:42;12.55;;;5.80;;
51764;SDS011;37835;53.256;6.456;2022-12-20T08:44:08;7.40;;;5.22;;
51764;SDS011;37835;53.256;6.456;2022-12-20T08:46:34;7.63;;;5.30;;
51764;SDS011;37835;53.256;6.456;2022-12-20T08:49:01;7.00;;;4.88;;
51764;SDS011;37835;53.256;6.456;2022-12-20T08:51:30;7.30;;;4.80;;
51764;SDS011;37835;53.256;6.456;2022-12-20T08:53:56;5.82;;;4.63;;
51764;SDS011;37835;53.256;6.456;2022-12-20T08:56:21;8.45;;;5.22;;
51764;SDS011;37835;53.256;6.456;2022-12-20T08:58:47;6.82;;;4.55;;
51764;SDS011;37835;53.256;6.456;2022-12-20T09:01:14;5.93;;;4.35;;
51764;SDS011;37835;53.256;6.456;2022-12-20T09:03:44;5.10;;;3.78;;
51764;SDS011;37835;53.256;6.456;2022-12-20T09:06:15;6.43;;;3.95;;
51764;SDS011;37835;53.256;6.456;2022-12-20T09:11:09;6.60;;;4.05;;
51764;SDS011;37835;53.256;6.456;2022-12-20T09:13:37;6.25;;;3.85;;
51764;SDS011;37835;53.256;6.456;2022-12-20T09:16:04;7.38;;;3.90;;
51764;SDS011;37835;53.256;6.456;2022-12-20T09:18:31;5.70;;;3.80;;
51764;SDS011;37835;53.256;6.456;2022-12-20T09:21:01;5.22;;;3.65;;
51764;SDS011;37835;53.256;6.456;2022-12-20T09:23:28;5.63;;;3.65;;
51764;SDS011;37835;53.256;6.456;2022-12-20T09:25:59;4.20;;;3.22;;
51764;SDS011;37835;53.256;6.456;2022-12-20T09:28:26;6.25;;;3.53;;
51764;SDS011;37835;53.256;6.456;2022-12-20T09:30:51;5.90;;;3.47;;
51764;SDS011;37835;53.256;6.456;2022-12-20T09:33:22;5.53;;;3.70;;
51764;SDS011;37835;53.256;6.456;2022-12-20T09:35:48;4.25;;;3.30;;
51764;SDS011;37835;53.256;6.456;2022-12-20T09:38:13;5.80;;;3.47;;
51764;SDS011;37835;53.256;6.456;2022-12-20T09:40:44;4.30;;;3.30;;
51764;SDS011;37835;53.256;6.456;2022-12-20T09:43:13;8.93;;;3.78;;
51764;SDS011;37835;53.256;6.456;2022-12-20T09:45:40;6.10;;;3.22;;
51764;SDS011;37835;53.256;6.456;2022-12-20T09:48:15;6.03;;;3.20;;
51764;SDS011;37835;53.256;6.456;2022-12-20T09:51:06;8.23;;;3.58;;
51764;SDS011;37835;53.256;6.456;2022-12-20T09:54:05;4.97;;;3.03;;
51764;SDS011;37835;53.256;6.456;2022-12-20T09:56:50;6.15;;;2.85;;
51764;SDS011;37835;53.256;6.456;2022-12-20T09:59:23;6.03;;;2.90;;
51764;SDS011;37835;53.256;6.456;2022-12-20T10:01:49;3.63;;;3.08;;
51764;SDS011;37835;53.256;6.456;2022-12-20T10:04:20;5.15;;;3.13;;
51764;SDS011;37835;53.256;6.456;2022-12-20T10:09:56;3.95;;;3.33;;
51764;SDS011;37835;53.256;6.456;2022-12-20T10:12:53;7.75;;;3.35;;
51764;SDS011;37835;53.256;6.456;2022-12-20T10:15:32;3.58;;;2.90;;
51764;SDS011;37835;53.256;6.456;2022-12-20T10:20:54;5.43;;;3.00;;
51764;SDS011;37835;53.256;6.456;2022-12-20T10:26:14;7.43;;;3.28;;
51764;SDS011;37835;53.256;6.456;2022-12-20T10:28:40;8.23;;;3.95;;
51764;SDS011;37835;53.256;6.456;2022-12-20T10:31:06;8.35;;;3.10;;
51764;SDS011;37835;53.256;6.456;2022-12-20T10:33:36;3.13;;;2.70;;
51764;SDS011;37835;53.256;6.456;2022-12-20T10:38:58;7.95;;;3.10;;
51764;SDS011;37835;53.256;6.456;2022-12-20T10:41:32;7.05;;;3.22;;
51764;SDS011;37835;53.256;6.456;2022-12-20T10:44:17;3.95;;;3.30;;
51764;SDS011;37835;53.256;6.456;2022-12-20T10:46:54;4.45;;;2.85;;
51764;SDS011;37835;53.256;6.456;2022-12-20T10:49:29;5.10;;;2.78;;
51764;SDS011;37835;53.256;6.456;2022-12-20T10:52:18;5.53;;;2.90;;
51764;SDS011;37835;53.256;6.456;2022-12-20T10:54:43;4.90;;;2.90;;
51764;SDS011;37835;53.256;6.456;2022-12-20T10:57:17;4.20;;;3.20;;
51764;SDS011;37835;53.256;6.456;2022-12-20T10:59:49;6.65;;;3.15;;
51764;SDS011;37835;53.256;6.456;2022-12-20T11:02:31;4.22;;;2.90;;
51764;SDS011;37835;53.256;6.456;2022-12-20T11:07:36;5.75;;;3.20;;
51764;SDS011;37835;53.256;6.456;2022-12-20T11:10:17;3.88;;;2.70;;
51764;SDS011;37835;53.256;6.456;2022-12-20T11:15:21;5.20;;;3.40;;
51764;SDS011;37835;53.256;6.456;2022-12-20T11:17:54;4.82;;;3.17;;
51764;SDS011;37835;53.256;6.456;2022-12-20T11:28:41;4.65;;;3.20;;
51764;SDS011;37835;53.256;6.456;2022-12-20T11:37:57;5.80;;;3.58;;
51764;SDS011;37835;53.256;6.456;2022-12-20T11:40:25;7.43;;;3.60;;
51764;SDS011;37835;53.256;6.456;2022-12-20T11:48:13;6.90;;;2.95;;
51764;SDS011;37835;53.256;6.456;2022-12-20T11:50:52;5.43;;;3.58;;
51764;SDS011;37835;53.256;6.456;2022-12-20T11:53:30;5.57;;;3.47;;
51764;SDS011;37835;53.256;6.456;2022-12-20T11:56:18;4.03;;;3.70;;
51764;SDS011;37835;53.256;6.456;2022-12-20T12:01:27;4.45;;;3.20;;
51764;SDS011;37835;53.256;6.456;2022-12-20T12:06:56;4.25;;;3.60;;
51764;SDS011;37835;53.256;6.456;2022-12-20T12:09:35;4.55;;;3.47;;
51764;SDS011;37835;53.256;6.456;2022-12-20T12:12:18;6.72;;;4.00;;
51764;SDS011;37835;53.256;6.456;2022-12-20T12:15:02;6.50;;;4.18;;
51764;SDS011;37835;53.256;6.456;2022-12-20T12:17:47;7.72;;;4.03;;
51764;SDS011;37835;53.256;6.456;2022-12-20T12:20:46;5.65;;;4.10;;
51764;SDS011;37835;53.256;6.456;2022-12-20T12:26:09;7.43;;;4.55;;
51764;SDS011;37835;53.256;6.456;2022-12-20T12:28:50;7.85;;;4.70;;
51764;SDS011;37835;53.256;6.456;2022-12-20T12:31:27;7.53;;;4.60;;
51764;SDS011;37835;53.256;6.456;2022-12-20T12:37:00;8.23;;;4.50;;
51764;SDS011;37835;53.256;6.456;2022-12-20T12:51:24;6.78;;;4.65;;
51764;SDS011;37835;53.256;6.456;2022-12-20T12:54:17;7.25;;;5.47;;
51764;SDS011;37835;53.256;6.456;2022-12-20T12:56:47;5.45;;;4.97;;
51764;SDS011;37835;53.256;6.456;2022-12-20T13:04:28;6.03;;;5.43;;
51764;SDS011;37835;53.256;6.456;2022-12-20T13:11:52;7.85;;;6.15;;
51764;SDS011;37835;53.256;6.456;2022-12-20T13:19:31;12.55;;;6.75;;
51764;SDS011;37835;53.256;6.456;2022-12-20T13:24:49;8.43;;;7.10;;
51764;SDS011;37835;53.256;6.456;2022-12-20T13:40:34;11.30;;;7.38;;
51764;SDS011;37835;53.256;6.456;2022-12-20T13:45:42;12.77;;;8.45;;
51764;SDS011;37835;53.256;6.456;2022-12-20T13:48:13;9.82;;;7.97;;
51764;SDS011;37835;53.256;6.456;2022-12-20T13:50:46;10.13;;;8.35;;
51764;SDS011;37835;53.256;6.456;2022-12-20T13:53:17;11.40;;;8.77;;
51764;SDS011;37835;53.256;6.456;2022-12-20T13:55:44;10.05;;;8.57;;
51764;SDS011;37835;53.256;6.456;2022-12-20T13:58:20;11.95;;;8.02;;
51764;SDS011;37835;53.256;6.456;2022-12-20T14:00:50;11.77;;;8.68;;
51764;SDS011;37835;53.256;6.456;2022-12-20T14:03:21;12.05;;;8.95;;
51764;SDS011;37835;53.256;6.456;2022-12-20T14:05:55;9.90;;;8.93;;
51764;SDS011;37835;53.256;6.456;2022-12-20T14:08:32;10.55;;;9.20;;
51764;SDS011;37835;53.256;6.456;2022-12-20T14:11:08;13.43;;;9.65;;
51764;SDS011;37835;53.256;6.456;2022-12-20T14:13:35;12.48;;;9.55;;
51764;SDS011;37835;53.256;6.456;2022-12-20T14:16:14;10.65;;;9.55;;
51764;SDS011;37835;53.256;6.456;2022-12-20T14:18:41;11.13;;;9.98;;
51764;SDS011;37835;53.256;6.456;2022-12-20T14:21:12;12.73;;;9.73;;
51764;SDS011;37835;53.256;6.456;2022-12-20T14:23:45;13.55;;;9.52;;
51764;SDS011;37835;53.256;6.456;2022-12-20T14:26:15;14.00;;;11.00;;
51764;SDS011;37835;53.256;6.456;2022-12-20T14:36:35;14.45;;;11.45;;
51764;SDS011;37835;53.256;6.456;2022-12-20T14:39:19;15.38;;;11.60;;
51764;SDS011;37835;53.256;6.456;2022-12-20T14:41:57;14.50;;;11.90;;
51764;SDS011;37835;53.256;6.456;2022-12-20T14:44:32;19.02;;;12.18;;
51764;SDS011;37835;53.256;6.456;2022-12-20T14:47:15;17.17;;;12.15;;
51764;SDS011;37835;53.256;6.456;2022-12-20T14:49:46;16.45;;;12.43;;
51764;SDS011;37835;53.256;6.456;2022-12-20T14:52:19;14.98;;;13.25;;
51764;SDS011;37835;53.256;6.456;2022-12-20T14:55:16;14.88;;;12.68;;
51764;SDS011;37835;53.256;6.456;2022-12-20T14:57:48;23.42;;;14.30;;
51764;SDS011;37835;53.256;6.456;2022-12-20T15:00:31;20.10;;;13.85;;
51764;SDS011;37835;53.256;6.456;2022-12-20T15:02:59;22.85;;;14.32;;
51764;SDS011;37835;53.256;6.456;2022-12-20T15:13:36;21.38;;;15.32;;
51764;SDS011;37835;53.256;6.456;2022-12-20T15:16:03;20.13;;;16.00;;
51764;SDS011;37835;53.256;6.456;2022-12-20T15:18:30;18.23;;;15.50;;
51764;SDS011;37835;53.256;6.456;2022-12-20T15:23:44;19.08;;;16.42;;
51764;SDS011;37835;53.256;6.456;2022-12-20T15:26:16;27.15;;;17.17;;
51764;SDS011;37835;53.256;6.456;2022-12-20T15:28:43;21.17;;;17.80;;
51764;SDS011;37835;53.256;6.456;2022-12-20T15:31:09;21.33;;;18.60;;
51764;SDS011;37835;53.256;6.456;2022-12-20T15:33:37;20.73;;;17.75;;
51764;SDS011;37835;53.256;6.456;2022-12-20T15:36:04;20.35;;;17.63;;
51764;SDS011;37835;53.256;6.456;2022-12-20T15:38:29;23.75;;;18.13;;
51764;SDS011;37835;53.256;6.456;2022-12-20T15:40:58;23.58;;;19.42;;
51764;SDS011;37835;53.256;6.456;2022-12-20T15:43:28;24.98;;;19.27;;
51764;SDS011;37835;53.256;6.456;2022-12-20T15:46:01;26.80;;;20.38;;
51764;SDS011;37835;53.256;6.456;2022-12-20T15:48:27;23.83;;;20.20;;
51764;SDS011;37835;53.256;6.456;2022-12-20T15:50:54;23.77;;;20.50;;
51764;SDS011;37835;53.256;6.456;2022-12-20T15:53:27;29.02;;;20.23;;
51764;SDS011;37835;53.256;6.456;2022-12-20T15:55:56;23.70;;;20.08;;
51764;SDS011;37835;53.256;6.456;2022-12-20T15:58:22;27.27;;;21.58;;
51764;SDS011;37835;53.256;6.456;2022-12-20T16:00:49;24.40;;;20.45;;
51764;SDS011;37835;53.256;6.456;2022-12-20T16:03:16;28.67;;;20.88;;
51764;SDS011;37835;53.256;6.456;2022-12-20T16:05:46;27.02;;;20.90;;
51764;SDS011;37835;53.256;6.456;2022-12-20T16:08:12;26.45;;;21.65;;
51764;SDS011;37835;53.256;6.456;2022-12-20T16:10:37;31.38;;;22.40;;
51764;SDS011;37835;53.256;6.456;2022-12-20T16:13:03;26.80;;;22.08;;
51764;SDS011;37835;53.256;6.456;2022-12-20T16:15:31;24.45;;;21.38;;
51764;SDS011;37835;53.256;6.456;2022-12-20T16:17:57;30.38;;;22.23;;
51764;SDS011;37835;53.256;6.456;2022-12-20T16:20:22;29.88;;;23.52;;
51764;SDS011;37835;53.256;6.456;2022-12-20T16:22:48;27.45;;;22.65;;
51764;SDS011;37835;53.256;6.456;2022-12-20T16:25:25;27.23;;;22.05;;
51764;SDS011;37835;53.256;6.456;2022-12-20T16:27:53;29.67;;;23.00;;
51764;SDS011;37835;53.256;6.456;2022-12-20T16:30:18;28.65;;;22.75;;
51764;SDS011;37835;53.256;6.456;2022-12-20T16:32:44;28.23;;;24.35;;
51764;SDS011;37835;53.256;6.456;2022-12-20T16:35:23;34.92;;;24.67;;
51764;SDS011;37835;53.256;6.456;2022-12-20T16:37:48;32.00;;;24.52;;
51764;SDS011;37835;53.256;6.456;2022-12-20T16:40:14;31.98;;;25.50;;
51764;SDS011;37835;53.256;6.456;2022-12-20T16:42:40;30.63;;;23.63;;
51764;SDS011;37835;53.256;6.456;2022-12-20T16:45:05;30.52;;;23.73;;
51764;SDS011;37835;53.256;6.456;2022-12-20T16:47:37;33.72;;;23.35;;
51764;SDS011;37835;53.256;6.456;2022-12-20T16:50:04;31.42;;;24.02;;
51764;SDS011;37835;53.256;6.456;2022-12-20T16:52:32;30.15;;;23.52;;
51764;SDS011;37835;53.256;6.456;2022-12-20T16:55:01;29.92;;;23.23;;
51764;SDS011;37835;53.256;6.456;2022-12-20T16:57:27;29.38;;;23.23;;
51764;SDS011;37835;53.256;6.456;2022-12-20T16:59:53;30.17;;;22.48;;
51764;SDS011;37835;53.256;6.456;2022-12-20T17:02:23;30.10;;;24.30;;
51764;SDS011;37835;53.256;6.456;2022-12-20T17:04:52;29.58;;;22.60;;
51764;SDS011;37835;53.256;6.456;2022-12-20T17:07:17;28.85;;;23.05;;
51764;SDS011;37835;53.256;6.456;2022-12-20T17:09:43;31.20;;;24.08;;
51764;SDS011;37835;53.256;6.456;2022-12-20T17:12:13;26.85;;;23.63;;